Wausau, WI

5:06 AM CDT on May 24, 2017 (GMT -0500)
Wausau Downtown | | Change Station

Elev 1201 ft 44.93 °N, 89.63 °W | Updated 12 minutes ago

Rain
Rain
47 °F
Feels Like 47 °F
N
4
Wind Variable Wind from North

Today
High -- | Low -- °F
--% Chance of Precip.
Yesterday
High -- | Low -- °F
Precip. -- in
Pressure 29.74 in
Visibility -9999.0 miles
Clouds Few 1600 ft
Overcast 3800 ft
Dew Point 46 °F
Humidity 97%
Rainfall 0.11 in
Snow Depth Not available.
5:20 AM 8:30 PM
Waning Crescent, 3% visible
METAR KAUW 240954Z AUTO 35003KT -RA FEW016 OVC038 08/08 A2972 RMK AO2 SLP070 P0004 T00830078 $
Pressure 29.74 in
Visibility -9999.0 miles
Clouds Few 1600 ft
Overcast 3800 ft
Dew Point 46 °F
Humidity 97%
Rainfall 0.11 in
Snow Depth Not available.
5:20 AM 8:30 PM
Waning Crescent, 3% visible
METAR KAUW 240954Z AUTO 35003KT -RA FEW016 OVC038 08/08 A2972 RMK AO2 SLP070 P0004 T00830078 $

Get Severe Weather Alerts

Thanks for signing up!

Be on the lookout for a verification email in your inbox.

You'll start receiving the daily forecast at 6 AM.

×

10-Day Weather Forecast

Almanac

Astronomy

May. 24, 2017 Rise Set
Actual Time
Civil Twilight
Nautical Twilight
Astronomical Twilight
Moon
Length of Visible Light
Length of Day
Tomorrow will be .
, % of the Moon is Illuminated

Today's Extremes

State Highs State Lows

Community

WunderPhotos

Category 6

Welcome to Category 6. This is the collective home for Weather Underground's featured writeups by Dr. Jeff Masters (right), Bob Henson (left), Chris Burt, and other regular contributors.

Nearby

Air Quality

  Air Quality AQ Index Pollutant
Not available.

Snow Depth

Station Depth Elevation

Earthquake Activity

City Distance Mag. Time & Date
Minimum magnitude displayed is 2.5.

Coastal Water Temperatures

Place Temperature

Stations

Nearby Weather Stations

Station Location Temp. Windchill Dew Point Humidity Wind Precip. Elev Updated Type
                   

Watches & Warnings

There are currently no watches in effect.